Nearby METAR Reports
LFBA - Agen,(47)Lot-et-Garonne
Mise à jour: Mon, 18-Dec-2017 11:30 CET
Légère pluie, Orageux
Légère pluie, Orageux
 Wind from W
Vent: W 19 km/h
Température: 9°C
Température au Vent: 6°C
Point de Rosée: 8°C
Humidité: 94%
Barometre: 1028 hPa
Nuage: Orageux
Visibilité: 9 km
2017/12/18 10:30 LFBA 181030Z AUTO 26010KT 230V290 9000 -RA BKN012/// BKN018/// OVC023/// ///TCU 09/08 Q1028 TEMPO 4500 -RADZ BKN005 OVC012
LFKJ - Ajaccio,(2A)Corse-du-Sud
Mise à jour: Mon, 18-Dec-2017 11:30 CET
Claire
Claire
 Wind from varies
Vent: varies 4 km/h
Température: 11°C
Point de Rosée: -2°C
Humidité: 41%
Barometre: 1023 hPa
Visibilité: Supérieure à  10 km
2017/12/18 10:30 LFKJ 181030Z AUTO VRB02KT CAVOK 11/M02 Q1023 TEMPO SCT030TCU BKN070
LFLP - Annecy,(74)Haute-Savoie
Mise à jour: Mon, 18-Dec-2017 11:30 CET

 Wind from varies
Vent: varies 4 km/h
Visibilité: 1 km
2017/12/18 10:30 LFLP 181030Z AUTO VRB02KT 1300 1200 R04/1600D SN BR SCT005 BKN012 OVC017 M01/M02 Q1022 TEMPO 3500 -SN OVC008
 
LFLW - Aurillac,(15)Cantal
Mise à jour: Mon, 18-Dec-2017 11:30 CET
Légère neige, Pluie, Brouillard, Orageux
Légère neige, Pluie, Brouillard, Orageux
 Wind from ENE
Vent: ENE 7 km/h
Température: 2°C
Température au Vent: 0°C
Point de Rosée: 2°C
Humidité: 100%
Barometre: 1024 hPa
Nuage: Orageux
Visibilité: 1 km
2017/12/18 10:30 LFLW 181030Z AUTO 07004KT 030V090 1300 R15/1800N -SNRA BR OVC007/// ///TCU 02/02 Q1024 BECMG 3000 RA OVC010
LFOA - Avord,(18)Cher
Mise à jour: Mon, 18-Dec-2017 11:30 CET
Nuageux
Nuageux
 Wind from N
Vent: N 28 km/h
Température: 8°C
Température au Vent: 4°C
Point de Rosée: 5°C
Humidité: 82%
Barometre: 1024 hPa
Nuage: Nuageux
Visibilité: 10 km
2017/12/18 10:30 LFOA 181030Z AUTO 01015KT 9999 SCT016 SCT023 BKN032 08/05 Q1024 TEMPO BKN012 BECMG 02010G20KT
LFSB - Bale(CH)-Mulhouse,(68)Haut-Rhin
Mise à jour: Mon, 18-Dec-2017 11:30 CET
Légère neige, Couvert
Légère neige, Couvert
 Wind from SSE
Vent: SSE 13 km/h
Température: 1°C
Température au Vent: -3°C
Point de Rosée: 0°C
Humidité: 93%
Barometre: 1021 hPa
Nuage: Couvert
Visibilité: 8 km
2017/12/18 10:30 LFSB 181030Z 15007KT 8000 -SN FEW003 OVC010 01/M00 Q1021 R15/290179 TEMPO BKN008
 
LFKB - Bastia,(2B)Haute-Corse
Mise à jour: Mon, 18-Dec-2017 11:30 CET
Claire
Claire
 Wind from SW
Vent: SW 11 km/h
Température: 10°C
Température au Vent: 8°C
Point de Rosée: 0°C
Humidité: 50%
Barometre: 1022 hPa
Visibilité: Supérieure à  10 km
2017/12/18 10:30 LFKB 181030Z AUTO 23006KT CAVOK 10/M00 Q1022 NOSIG
LFOB - Beauvais,(60)Oise
Mise à jour: Mon, 18-Dec-2017 11:30 CET
Claire
Claire
 Wind from N
Vent: N 19 km/h
Température: 7°C
Température au Vent: 4°C
Point de Rosée: 4°C
Humidité: 81%
Barometre: 1027 hPa
Visibilité: Supérieure à  10 km
2017/12/18 10:30 LFOB 181030Z AUTO 35010KT CAVOK 07/04 Q1027 NOSIG
LFBE - Bergerac,(24)Dordogne
Mise à jour: Mon, 18-Dec-2017 11:30 CET
Légère pluie, Bruine, Brouillard, Couvert
Légère pluie, Bruine, Brouillard, Couvert
 Wind from W
Vent: W 24 km/h
Température: 9°C
Température au Vent: 6°C
Point de Rosée: 8°C
Humidité: 94%
Barometre: 1026 hPa
Nuage: Couvert
Visibilité: 4 km
2017/12/18 10:30 LFBE 181030Z AUTO 26013KT 3800 -RADZ BR OVC007 09/08 Q1026 TEMPO 2000 RADZ OVC004
 
LFMU - Beziers, Vias,(34)Hérault
Mise à jour: Mon, 18-Dec-2017 11:30 CET
Claire
Claire
 Wind from W
Vent: W 20 km/h
Température: 11°C
Point de Rosée: 5°C
Humidité: 67%
Barometre: 1025 hPa
Visibilité: Supérieure à  10 km
2017/12/18 10:30 LFMU 181030Z AUTO 27011KT CAVOK 11/05 Q1025 TEMPO 27015G30KT
LFBZ - Biarritz,(64)Pyrénées-Atlantiques
Mise à jour: Mon, 18-Dec-2017 11:30 CET
Légère pluie, Couvert
Légère pluie, Couvert
 Wind from WSW
Vent: WSW 15 km/h
Température: 10°C
Température au Vent: 8°C
Point de Rosée: 7°C
Humidité: 82%
Barometre: 1031 hPa
Nuage: Couvert
Visibilité: 10 km
2017/12/18 10:30 LFBZ 181030Z AUTO 25008KT 210V270 9999 -RA FEW021 OVC032 10/07 Q1031 BECMG 26015G25KT 4500 -RA OVC013
LFBD - Bordeaux , Merignac,(33)Gironde
Mise à jour: Mon, 18-Dec-2017 11:30 CET
Légère pluie, Brouillard, Couvert
Légère pluie, Brouillard, Couvert
 Wind from W
Vent: W 26 km/h
Température: 11°C
Point de Rosée: 10°C
Humidité: 94%
Barometre: 1028 hPa
Nuage: Couvert
Visibilité: 4 km
2017/12/18 10:30 LFBD 181030Z AUTO 27014KT 4300 -RA BR OVC005 11/10 Q1028 TEMPO 2500 RADZ
 
LFAQ - Bray,(80)Somme
Mise à jour: Mon, 18-Dec-2017 11:30 CET
Couvert
Couvert
 Wind from NNW
Vent: NNW 22 km/h
Température: 6°C
Température au Vent: 2°C
Point de Rosée: 5°C
Humidité: 93%
Barometre: 1026 hPa
Nuage: Couvert
Visibilité: 10 km
2017/12/18 10:30 LFAQ 181030Z AUTO 34012KT 9999 BKN013 OVC022 06/05 Q1026 BECMG SCT020
LFRB - Brest,(29)Finistère
Mise à jour: Mon, 18-Dec-2017 11:30 CET
Quelques nuages
Quelques nuages
 Wind from N
Vent: N 11 km/h
Température: 11°C
Point de Rosée: 10°C
Humidité: 94%
Barometre: 1029 hPa
Nuage: Quelques nuages
Visibilité: 10 km
2017/12/18 10:30 LFRB 181030Z AUTO 01006KT 330V030 9999 FEW019 11/10 Q1029 NOSIG
LFBU - Brie,Champniers,(16)Charente
Mise à jour: Mon, 18-Dec-2017 11:30 CET

 Wind from W
Vent: W 19 km/h
Visibilité: 3 km
2017/12/18 10:30 LFBU 181030Z AUTO 28010KT 2500 1200 R28/P2000 -RA BR OVC003 10/10 Q1025 NOSIG
 
LFSL - Brive (19), Souillac(46),Corrèze Lot
Mise à jour: Mon, 18-Dec-2017 11:30 CET
Légère pluie, Brouillard, Couvert
Légère pluie, Brouillard, Couvert
 Wind from W
Vent: W 15 km/h
Température: 8°C
Température au Vent: 5°C
Point de Rosée: 7°C
Humidité: 93%
Barometre: 1024 hPa
Nuage: Couvert
Visibilité: 4 km
2017/12/18 10:30 LFSL 181030Z AUTO 27008KT 240V320 4400 -RA BR OVC004 08/07 Q1024 TEMPO RA
LFRK - Caen,(14)Calvados
Mise à jour: Mon, 18-Dec-2017 11:30 CET
Nuageux
Nuageux
 Wind from NNE
Vent: NNE 11 km/h
Température: 8°C
Température au Vent: 6°C
Point de Rosée: 5°C
Humidité: 82%
Barometre: 1029 hPa
Nuage: Nuageux
Visibilité: 10 km
2017/12/18 10:30 LFRK 181030Z AUTO 03006KT 9999 BKN022 08/05 Q1029 NOSIG
LFKC - Calvi,(2B)Haute-Corse
Mise à jour: Mon, 18-Dec-2017 11:30 CET
Claire
Claire
 Wind from S
Vent: S 13 km/h
Température: 12°C
Point de Rosée: -2°C
Humidité: 38%
Barometre: 1022 hPa
Visibilité: Supérieure à  10 km
2017/12/18 10:30 LFKC 181030Z AUTO 19007KT 160V220 CAVOK 12/M02 Q1022 TEMPO SHRA SCT050TCU
 
LFMD - Cannes,(06)Alpes-Maritimes
Mise à jour: Mon, 18-Dec-2017 11:30 CET
Claire
Claire
 Wind from N
Vent: N 6 km/h
Température: 4°C
Point de Rosée: -5°C
Humidité: 52%
Barometre: 1021 hPa
Visibilité: Supérieure à  10 km
2017/12/18 10:30 LFMD 181030Z AUTO 35003KT 290V030 CAVOK 04/M05 Q1021 NOSIG
LFMK - Carcassonne,(11)Aude
Mise à jour: Mon, 18-Dec-2017 11:30 CET
Nuageux
Nuageux
 Wind from W
Vent: W 22 km/h
Température: 9°C
Température au Vent: 6°C
Point de Rosée: 5°C
Humidité: 76%
Barometre: 1027 hPa
Nuage: Nuageux
Visibilité: 10 km
2017/12/18 10:30 LFMK 181030Z AUTO 28012KT 9999 FEW029 BKN043 BKN049 09/05 Q1027 TEMPO 27020G30KT BECMG RA
LFCK - Castre-Mazamet,(81)Tarn
Mise à jour: Mon, 18-Dec-2017 11:30 CET
Légère pluie, Orageux
Légère pluie, Orageux
 Wind from WNW
Vent: WNW 15 km/h
Température: 6°C
Température au Vent: 3°C
Point de Rosée: 5°C
Humidité: 93%
Barometre: 1028 hPa
Nuage: Orageux
Visibilité: 10 km
2017/12/18 10:30 LFCK 181030Z AUTO 30008KT 9999 -RA OVC012/// ///TCU 06/05 Q1028 TEMPO 27018G30KT 4000 RA BKN010
 
LFMV - Avignon/Caumont,(84) Vaucluse
Mise à jour: Mon, 18-Dec-2017 11:30 CET
Légère pluie, Nuageux
Légère pluie, Nuageux
 Wind from calm
Vent: Calm
Température: 3°C
Point de Rosée: 1°C
Humidité: 87%
Barometre: 1024 hPa
Nuage: Nuageux
Visibilité: 10 km
2017/12/18 10:30 LFMV 181030Z AUTO 00000KT 9999 -RA SCT005 SCT021 BKN037 03/01 Q1024 BECMG RA
LFBC - Cazaux, (33)Gironde
Mise à jour: Mon, 18-Dec-2017 11:30 CET
Légère bruine, Couvert
Légère bruine, Couvert
 Wind from W
Vent: W 22 km/h
Température: 11°C
Point de Rosée: 11°C
Humidité: 100%
Barometre: 1029 hPa
Nuage: Couvert
Visibilité: 8 km
2017/12/18 10:30 LFBC 181030Z AUTO 26012KT 230V290 8000 -DZ OVC006 11/11 Q1029 TEMPO 3000 DZRA OVC003 BECMG 28015G25KT
LFOK - Chalon,Vatry,(51)Marne
Mise à jour: Mon, 18-Dec-2017 11:30 CET
Nuageux
Nuageux
 Wind from N
Vent: N 35 km/h
Température: 6°C
Température au Vent: 1°C
Point de Rosée: 3°C
Humidité: 81%
Barometre: 1023 hPa
Nuage: Nuageux
Visibilité: 10 km
2017/12/18 10:30 LFOK 181030Z AUTO 35019KT 9999 SCT017 SCT024 BKN042 06/03 Q1023 NOSIG
 
LFLB - Chambery,Aix Bai,(73)Savoie
Mise à jour: Mon, 18-Dec-2017 11:30 CET
Légère neige, Brouillard, Nuageux
Légère neige, Brouillard, Nuageux
 Wind from SSW
Vent: SSW 20 km/h
Température: 0°C
Température au Vent: -6°C
Point de Rosée: -1°C
Humidité: 93%
Barometre: 1024 hPa
Nuage: Nuageux
Visibilité: 5 km
2017/12/18 10:30 LFLB 181030Z AUTO 20011KT 4700 -SN BR FEW011 SCT024 BKN029 M00/M01 Q1024 TEMPO 0500 SN BKN003 OVC012
LFOC - Chateaudun,(28)Eure-et-Loir
Mise à jour: Mon, 18-Dec-2017 11:30 CET
Quelques nuages
Quelques nuages
 Wind from N
Vent: N 20 km/h
Température: 7°C
Température au Vent: 4°C
Point de Rosée: 4°C
Humidité: 81%
Barometre: 1026 hPa
Nuage: Quelques nuages
Visibilité: 10 km
2017/12/18 10:30 LFOC 181030Z AUTO 01011KT 9999 FEW020 07/04 Q1026 NOSIG
LFLX - Chateauroux,(36)Indre
Mise à jour: Mon, 18-Dec-2017 11:30 CET
Couvert
Couvert
 Wind from N
Vent: N 17 km/h
Température: 10°C
Température au Vent: 8°C
Point de Rosée: 9°C
Humidité: 94%
Barometre: 1024 hPa
Nuage: Couvert
Visibilité: 10 km
2017/12/18 10:30 LFLX 181030Z AUTO 35009KT 9999 FEW011 SCT016 OVC049 10/09 Q1024 NOSIG
 
LFRC - Cherbourg , Maupertus,(50)Manche
Mise à jour: Mon, 18-Dec-2017 11:30 CET
Partiellement nuageux
Partiellement nuageux
 Wind from NE
Vent: NE 17 km/h
Température: 8°C
Température au Vent: 5°C
Point de Rosée: 3°C
Humidité: 71%
Barometre: 1029 hPa
Nuage: Partiellement nuageux
Visibilité: 10 km
2017/12/18 10:30 LFRC 181030Z AUTO 05009KT 9999 SCT024 08/03 Q1029 NOSIG
LFLC - Clermont-Ferrand,(63)Puy-de-Dôme
Mise à jour: Mon, 18-Dec-2017 11:30 CET
Nuageux
Nuageux
 Wind from W
Vent: W 22 km/h
Température: 8°C
Température au Vent: 4°C
Point de Rosée: 4°C
Humidité: 76%
Barometre: 1021 hPa
Nuage: Nuageux
Visibilité: 10 km
2017/12/18 10:30 LFLC 181030Z AUTO 26012KT 9999 SCT039 BKN046 BKN068 08/04 Q1021 BECMG 36010KT
LFBG - Cognac,(16)Charente
Mise à jour: Mon, 18-Dec-2017 11:30 CET
Légère bruine, Brouillard, Couvert
Légère bruine, Brouillard, Couvert
 Wind from W
Vent: W 20 km/h
Température: 11°C
Point de Rosée: 11°C
Humidité: 100%
Barometre: 1026 hPa
Nuage: Couvert
Visibilité: 4 km
2017/12/18 10:30 LFBG 181030Z AUTO 28011KT 4000 -DZ BR OVC004 11/11 Q1026 BECMG 36012KT 9999 RADZ SCT015
 
LFGA - Colmar,(68)Haut-Rhin
Mise à jour: Mon, 18-Dec-2017 11:30 CET
Couvert
Couvert
 Wind from NNW
Vent: NNW 6 km/h
Température: 2°C
Point de Rosée: 1°C
Humidité: 93%
Barometre: 1021 hPa
Nuage: Couvert
Visibilité: 10 km
2017/12/18 10:30 LFGA 181030Z AUTO 33003KT 9999 FEW010 OVC046 02/01 Q1021
LFPT - Cormeilles Vexin,(95)Val-d Oise
Mise à jour: Mon, 18-Dec-2017 11:30 CET
Claire
Claire
 Wind from N
Vent: N 20 km/h
Température: 7°C
Température au Vent: 4°C
Point de Rosée: 4°C
Humidité: 81%
Barometre: 1026 hPa
Visibilité: Supérieure à  10 km
2017/12/18 10:30 LFPT 181030Z AUTO 01011KT CAVOK 07/04 Q1026
LFPC - Creil Fafb,(60)Oise
Mise à jour: Thu, 01-Sep-2016 05:00 CEST
Pas Actualisé
Claire
Claire
 Wind from WNW
Vent: WNW 7 km/h
Température: 24°C
Point de Rosée: 13°C
Humidité: 50%
Barometre: 1023 hPa
Visibilité: Supérieure à  10 km
2016/09/01 15:00 LFPC 011500Z AUTO 30004KT 240V350 CAVOK 24/13 Q1023
 
LFBY - Dax,(40)Landes
Mise à jour: Mon, 18-Dec-2017 11:24 CET
Légère pluie, Nuageux
Légère pluie, Nuageux
 Wind from WSW
Vent: WSW 11 km/h
Température: 10°C
Température au Vent: 8°C
Point de Rosée: 9°C
Humidité: 94%
Barometre: 1031 hPa
Nuage: Nuageux
Visibilité: 6 km
2017/12/18 10:24 LFBY 181024Z 25006KT 6000 -RA FEW011 SCT023 BKN036 10/09 Q1031 RMK B2
LFRG - Deauville/Saint-Gatien,(14)Calvados
Mise à jour: Mon, 18-Dec-2017 11:30 CET
Claire
Claire
 Wind from NE
Vent: NE 13 km/h
Température: 7°C
Température au Vent: 5°C
Point de Rosée: 4°C
Humidité: 81%
Barometre: 1028 hPa
Visibilité: Supérieure à  10 km
2017/12/18 10:30 LFRG 181030Z AUTO 05007KT 010V080 CAVOK 07/04 Q1028 NOSIG
LFSD - Dijon,(31)Côte-d Or
Mise à jour: Mon, 18-Dec-2017 11:30 CET
Légère pluie, Brouillard, Couvert
Légère pluie, Brouillard, Couvert
 Wind from calm
Vent: Calm
Température: 1°C
Point de Rosée: 1°C
Humidité: 100%
Barometre: 1022 hPa
Nuage: Couvert
Visibilité: 5 km
2017/12/18 10:30 LFSD 181030Z AUTO 00000KT 5000 -RA BR BKN004 OVC014 01/01 Q1022
 
LFRD - Dinard,(35)Ille-et-Vilaine
Mise à jour: Mon, 18-Dec-2017 11:30 CET
Quelques nuages
Quelques nuages
 Wind from NNE
Vent: NNE 17 km/h
Température: 9°C
Température au Vent: 7°C
Point de Rosée: 7°C
Humidité: 87%
Barometre: 1029 hPa
Nuage: Quelques nuages
Visibilité: 10 km
2017/12/18 10:30 LFRD 181030Z AUTO 03009KT 360V060 9999 FEW014 09/07 Q1029 BECMG BKN020
LFGJ - Dole-Tavaux,(39) Jura
Mise à jour: Mon, 18-Dec-2017 11:30 CET
Couvert
Couvert
 Wind from S
Vent: S 11 km/h
Température: 1°C
Température au Vent: -2°C
Point de Rosée: 1°C
Humidité: 100%
Barometre: 1022 hPa
Nuage: Couvert
Visibilité: 10 km
2017/12/18 10:30 LFGJ 181030Z AUTO 18006KT 120V210 9999 OVC005 01/01 Q1022 TEMPO 4000 -RA
FMCZ - Dzaoudzi-Pamandzi,(976)Mayotte
Mise à jour: Mon, 18-Dec-2017 11:30 CET
Nuageux
Nuageux
 Wind from WNW
Vent: WNW 6 km/h
Température: 28°C
Humidex: 31°C
Point de Rosée: 23°C
Humidité: 74%
Barometre: 1012 hPa
Nuage: Nuageux
Visibilité: 10 km
2017/12/18 10:30 FMCZ 181030Z 29003KT 260V330 9999 FEW022 BKN240 28/23 Q1012 NOSIG
 
LFOE - Evreux,(27)Eure
Mise à jour: Mon, 18-Dec-2017 11:30 CET
Claire
Claire
 Wind from N
Vent: N 17 km/h
Température: 7°C
Température au Vent: 4°C
Point de Rosée: 4°C
Humidité: 81%
Barometre: 1027 hPa
Visibilité: Supérieure à  10 km
2017/12/18 10:30 LFOE 181030Z AUTO 01009KT CAVOK 07/04 Q1027
LFSG - EPINAL Mirecourt,(88)Vosges
Mise à jour: Mon, 18-Dec-2017 11:30 CET
Légère pluie, Couvert
Légère pluie, Couvert
 Wind from WSW
Vent: WSW 11 km/h
Température: 1°C
Température au Vent: -2°C
Point de Rosée: 1°C
Humidité: 100%
Barometre: 1021 hPa
Nuage: Couvert
Visibilité: 9 km
2017/12/18 10:30 LFSG 181030Z AUTO 25006KT 9000 -RA FEW007 OVC011 01/01 Q1021
LFKF - Figari,(2A)Corse-du-Sud
Mise à jour: Mon, 18-Dec-2017 11:30 CET
Claire
Claire
 Wind from varies
Vent: varies 0 km/h
Température: 12°C
Point de Rosée: 3°C
Humidité: 54%
Barometre: 1023 hPa
Visibilité: Supérieure à  10 km
2017/12/18 10:30 LFKF 181030Z AUTO /////KT CAVOK 12/03 Q1023
 
LFLS - Grenoble , St. Geoirs,(38)Isère
Mise à jour: Mon, 18-Dec-2017 11:30 CET
Légère neige, Brouillard, Couvert
Légère neige, Brouillard, Couvert
 Wind from E
Vent: E 13 km/h
Température: 0°C
Température au Vent: -4°C
Point de Rosée: -1°C
Humidité: 93%
Barometre: 1022 hPa
Nuage: Couvert
Visibilité: 5 km
2017/12/18 10:30 LFLS 181030Z AUTO 08007KT 5000 -SN BR BKN009 BKN017 OVC023 00/M01 Q1022 NOSIG
LFTH - Hyeres,(83)Var
Mise à jour: Mon, 18-Dec-2017 11:30 CET
Claire
Claire
 Wind from NNE
Vent: NNE 4 km/h
Température: 7°C
Point de Rosée: -5°C
Humidité: 42%
Barometre: 1022 hPa
Visibilité: Supérieure à  10 km
2017/12/18 10:30 LFTH 181030Z AUTO 02002KT CAVOK 07/M05 Q1022 BECMG 29015G25KT
LFMI - Istres,(13)Bouches-du-Rhône
Mise à jour: Mon, 18-Dec-2017 11:30 CET
Légère neige, Pluie, Orageux
Légère neige, Pluie, Orageux
 Wind from WNW
Vent: WNW 7 km/h
Température: 3°C
Température au Vent: 1°C
Point de Rosée: 2°C
Humidité: 93%
Barometre: 1024 hPa
Nuage: Orageux
Visibilité: 10 km
2017/12/18 10:30 LFMI 181030Z AUTO 29004KT 9999 -SNRA BKN048/// OVC058/// ///TCU 03/02 Q1024 TEMPO RA BECMG BKN050
 
LFOH - La Heve,(76)Seine-Maritime
Mise à jour: Mon, 18-Dec-2017 11:30 CET
Claire
Claire
 Wind from NNE
Vent: NNE 15 km/h
Température: 8°C
Température au Vent: 5°C
Point de Rosée: 5°C
Humidité: 82%
Barometre: 1028 hPa
Visibilité: Supérieure à  10 km
2017/12/18 10:30 LFOH 181030Z AUTO 03008KT CAVOK 08/05 Q1028 NOSIG
LFRI - La Roche-Sur-Yon,(85)Vendée
Mise à jour: Mon, 18-Dec-2017 11:30 CET
Couvert
Couvert
 Wind from NW
Vent: NW 19 km/h
Température: 12°C
Point de Rosée: 11°C
Humidité: 94%
Barometre: 1026 hPa
Nuage: Couvert
Visibilité: 10 km
2017/12/18 10:30 LFRI 181030Z AUTO 32010KT 9999 OVC005 12/11 Q1026 BECMG BKN020
LFBH - La Rochelle,(17)Charente-Maritime
Mise à jour: Mon, 18-Dec-2017 11:30 CET
Couvert
Couvert
 Wind from WNW
Vent: WNW 24 km/h
Température: 11°C
Point de Rosée: 11°C
Humidité: 100%
Barometre: 1026 hPa
Nuage: Couvert
Visibilité: 8 km
2017/12/18 10:30 LFBH 181030Z AUTO 30013KT 8000 BKN002 OVC009 11/11 Q1026 TEMPO 2500 RADZ
 
LFOV - Laval,Entrammes,(53)Mayenne
Mise à jour: Mon, 18-Dec-2017 11:30 CET
Quelques nuages
Quelques nuages
 Wind from NNE
Vent: NNE 24 km/h
Température: 9°C
Température au Vent: 6°C
Point de Rosée: 5°C
Humidité: 76%
Barometre: 1027 hPa
Nuage: Quelques nuages
Visibilité: 10 km
2017/12/18 10:30 LFOV 181030Z AUTO 03013KT 9999 FEW019 09/05 Q1027
LFRJ - Landivisiau,(29)Finistère
Mise à jour: Mon, 18-Dec-2017 11:30 CET
Quelques nuages
Quelques nuages
 Wind from N
Vent: N 13 km/h
Température: 11°C
Point de Rosée: 10°C
Humidité: 94%
Barometre: 1029 hPa
Nuage: Quelques nuages
Visibilité: 10 km
2017/12/18 10:30 LFRJ 181030Z AUTO 01007KT 9999 FEW021 11/10 Q1029 NOSIG
LFRO - Lannion,Servel,(22)Côtes-d Armor
Mise à jour: Mon, 18-Dec-2017 11:30 CET
Nuageux
Nuageux
 Wind from NE
Vent: NE 7 km/h
Température: 11°C
Point de Rosée: 7°C
Humidité: 77%
Barometre: 1030 hPa
Nuage: Nuageux
Visibilité: 10 km
2017/12/18 10:30 LFRO 181030Z AUTO 04004KT 330V090 9999 BKN020 BKN027 11/07 Q1030 NOSIG
 
LFRL - Lanveoc Poulmic,(29)Finistère
Mise à jour: Mon, 18-Dec-2017 11:30 CET
Claire
Claire
 Wind from N
Vent: N 11 km/h
Température: 11°C
Point de Rosée: 10°C
Humidité: 94%
Barometre: 1029 hPa
Visibilité: Supérieure à  10 km
2017/12/18 10:30 LFRL 181030Z AUTO 36006KT CAVOK 11/10 Q1029 BECMG BKN010
TFFF - Le Lamentin,(972)Martinique
Mise à jour: Mon, 18-Dec-2017 11:30 CET
Orageux
Orageux
 Wind from ENE
Vent: ENE 7 km/h
Température: 24°C
Point de Rosée: 23°C
Humidité: 94%
Barometre: 1015 hPa
Nuage: Orageux
Visibilité: 10 km
2017/12/18 10:30 TFFF 181030Z AUTO 06004KT 020V100 9999 FEW022/// SCT033/// ///CB 24/23 Q1015 TEMPO 4000 SHRA
LFMC - Le Luc,(83)Var
Mise à jour: Mon, 18-Dec-2017 11:00 CET
Claire
Claire
 Wind from W
Vent: W 19 km/h
Température: 5°C
Température au Vent: 1°C
Point de Rosée: -6°C
Humidité: 45%
Barometre: 1022 hPa
Visibilité: Supérieure à  10 km
2017/12/18 10:00 LFMC 181000Z 26010KT CAVOK 05/M06 Q1022
 
LFRM - Le Mans,(72)Sarthe
Mise à jour: Mon, 18-Dec-2017 11:30 CET
Claire
Claire
 Wind from NNE
Vent: NNE 26 km/h
Température: 9°C
Température au Vent: 6°C
Point de Rosée: 4°C
Humidité: 71%
Barometre: 1027 hPa
Visibilité: Supérieure à  10 km
2017/12/18 10:30 LFRM 181030Z AUTO 03014KT CAVOK 09/04 Q1027 NOSIG
LFAT - Le Touquet,(62)Pas-de-Calais
Mise à jour: Mon, 18-Dec-2017 11:30 CET
Claire
Claire
 Wind from N
Vent: N 13 km/h
Température: 7°C
Température au Vent: 5°C
Point de Rosée: 4°C
Humidité: 81%
Barometre: 1027 hPa
Visibilité: Supérieure à  10 km
2017/12/18 10:30 LFAT 181030Z AUTO 35007KT 330V040 CAVOK 07/04 Q1027 NOSIG
LFQQ - Lille,(59)Nord
Mise à jour: Mon, 18-Dec-2017 11:30 CET
Nuageux
Nuageux
 Wind from NNW
Vent: NNW 17 km/h
Température: 7°C
Température au Vent: 4°C
Point de Rosée: 5°C
Humidité: 87%
Barometre: 1026 hPa
Nuage: Nuageux
Visibilité: 10 km
2017/12/18 10:30 LFQQ 181030Z AUTO 34009KT 9999 FEW011 BKN220 07/05 Q1026 NOSIG
 
LFRH - Lorient/Lann Bih,(56)Morbihan
Mise à jour: Mon, 18-Dec-2017 11:30 CET
Partiellement nuageux
Partiellement nuageux
 Wind from N
Vent: N 13 km/h
Température: 12°C
Point de Rosée: 9°C
Humidité: 82%
Barometre: 1029 hPa
Nuage: Partiellement nuageux
Visibilité: 10 km
2017/12/18 10:30 LFRH 181030Z AUTO 35007KT 320V030 9999 SCT023 12/09 Q1029 TEMPO BKN005 OVC012
LFBL - Limoges,(87)Haute-Vienne
Mise à jour: Mon, 18-Dec-2017 11:30 CET

 Wind from W
Vent: W 19 km/h
Visibilité: 5 km
2017/12/18 10:30 LFBL 181030Z AUTO 28010KT 250V310 5000 1700 -RA BR OVC003 08/08 Q1024 TEMPO 02015G25KT 0800 FG VV///
LFSX - Luxeuil-les-Bains,(70)Haute-Saône
Mise à jour: Mon, 18-Dec-2017 11:30 CET

 Wind from calm
Vent: Calm
Visibilité: 7 km
2017/12/18 10:30 LFSX 181030Z AUTO 00000KT 7000 2700 -SNRA OVC006 01/01 Q1022 BECMG BKN012
 
LFLY - Lyon,Bron,(69) Rhône
Mise à jour: Mon, 18-Dec-2017 11:30 CET
Légère bruine, Couvert
Légère bruine, Couvert
 Wind from varies
Vent: varies 2 km/h
Température: 1°C
Point de Rosée: 1°C
Humidité: 100%
Barometre: 1023 hPa
Nuage: Couvert
Visibilité: 10 km
2017/12/18 10:30 LFLY 181030Z AUTO VRB01KT 9999 -DZ OVC007 01/01 Q1023 TEMPO 4000 -RA BECMG 35012KT OVC012
LFLL - Lyon,Satolas,(69) Rhône
Mise à jour: Mon, 18-Dec-2017 11:30 CET
Légère bruine, Brouillard, Couvert
Légère bruine, Brouillard, Couvert
 Wind from S
Vent: S 6 km/h
Température: 1°C
Point de Rosée: 0°C
Humidité: 93%
Barometre: 1023 hPa
Nuage: Couvert
Visibilité: 4 km
2017/12/18 10:30 LFLL 181030Z 17003KT 100V210 3500 -DZ BR FEW003 BKN005 OVC020 01/M00 Q1023 R18R/591193 NOSIG
LFJR - Marcé,(49) Maine-et-Loire
Mise à jour: Mon, 18-Dec-2017 11:30 CET
Nuageux
Nuageux
 Wind from N
Vent: N 13 km/h
Température: 11°C
Point de Rosée: 9°C
Humidité: 88%
Barometre: 1026 hPa
Nuage: Nuageux
Visibilité: 10 km
2017/12/18 10:30 LFJR 181030Z AUTO 36007KT 9999 BKN012 BKN017 11/09 Q1026 BECMG BKN020
 
LFML - Marseille, Marignane,(13)Bouches-du-Rhône
Mise à jour: Mon, 18-Dec-2017 11:30 CET
Orageux
Orageux
 Wind from NW
Vent: NW 6 km/h
Température: 4°C
Point de Rosée: 1°C
Humidité: 81%
Barometre: 1024 hPa
Nuage: Orageux
Visibilité: 10 km
2017/12/18 10:30 LFML 181030Z AUTO 31003KT 9999 FEW034/// SCT040/// OVC049/// ///TCU 04/01 Q1024 TEMPO RA SCT016 BKN030
SOCA - Matury,(973)Guyane
Mise à jour: Mon, 18-Dec-2017 11:30 CET
Orageux
Orageux
 Wind from SSW
Vent: SSW 4 km/h
Température: 23°C
Point de Rosée: 23°C
Humidité: 100%
Barometre: 1012 hPa
Nuage: Orageux
Visibilité: 10 km
2017/12/18 10:30 SOCA 181030Z AUTO 21002KT 9999 BKN001/// BKN012/// OVC140/// ///TCU 23/23 Q1012 TEMPO 4000 SHRA FEW012TCU BECMG 08010KT
LFPM - Melun,(77)Seine-et-Marne
Mise à jour: Mon, 18-Dec-2017 11:30 CET
Nuageux
Nuageux
 Wind from N
Vent: N 22 km/h
Température: 8°C
Température au Vent: 4°C
Point de Rosée: 5°C
Humidité: 82%
Barometre: 1025 hPa
Nuage: Nuageux
Visibilité: 10 km
2017/12/18 10:30 LFPM 181030Z AUTO 35012KT 9999 BKN019 08/05 Q1025
 
LFJL - Metz-Nancy-Lorraine,(57)Moselle
Mise à jour: Mon, 18-Dec-2017 11:30 CET
Couvert
Couvert
 Wind from NW
Vent: NW 13 km/h
Température: 3°C
Température au Vent: -1°C
Point de Rosée: 3°C
Humidité: 100%
Barometre: 1021 hPa
Nuage: Couvert
Visibilité: 10 km
2017/12/18 10:30 LFJL 181030Z AUTO 32007KT 9999 FEW004 OVC012 03/03 Q1021 BECMG OVC020
LFBM - Mont-De-Marsan,(40)Landes
Mise à jour: Mon, 18-Dec-2017 11:30 CET
Nuageux
Nuageux
 Wind from WSW
Vent: WSW 15 km/h
Température: 9°C
Température au Vent: 7°C
Point de Rosée: 8°C
Humidité: 94%
Barometre: 1030 hPa
Nuage: Nuageux
Visibilité: 10 km
2017/12/18 10:30 LFBM 181030Z AUTO 25008KT 220V280 9999 BKN008 BKN016 BKN026 09/08 Q1030 TEMPO 26020KT 2000 RADZ BKN014
LFMT - Montpellier,(34)Hérault
Mise à jour: Mon, 18-Dec-2017 11:30 CET
Légère pluie, Orageux
Légère pluie, Orageux
 Wind from WSW
Vent: WSW 2 km/h
Température: 4°C
Point de Rosée: 1°C
Humidité: 81%
Barometre: 1025 hPa
Nuage: Orageux
Visibilité: 10 km
2017/12/18 10:30 LFMT 181030Z AUTO 24001KT 9999 -RA FEW042/// OVC066/// ///TCU 04/01 Q1025 TEMPO DZ BKN030
 
LFRU - Morlaix Ploujean,(29)Finistère
Mise à jour: Mon, 18-Dec-2017 11:30 CET
Couvert
Couvert
 Wind from N
Vent: N 9 km/h
Température: 11°C
Point de Rosée: 9°C
Humidité: 88%
Barometre: 1029 hPa
Nuage: Couvert
Visibilité: 10 km
2017/12/18 10:30 LFRU 181030Z AUTO 36005KT 9999 BKN017 OVC025 11/09 Q1029
LFSN - Nancy,Essey,(54)Meurthe-et-Moselle
Mise à jour: Mon, 18-Dec-2017 11:30 CET
Couvert
Couvert
 Wind from NW
Vent: NW 7 km/h
Température: 4°C
Température au Vent: 2°C
Point de Rosée: 3°C
Humidité: 93%
Barometre: 1021 hPa
Nuage: Couvert
Visibilité: 8 km
2017/12/18 10:30 LFSN 181030Z AUTO 31004KT 280V340 8000 FEW007 BKN015 OVC021 04/03 Q1021
LFSO - Nancy , Ochey,(54)Meurthe-et-Moselle
Mise à jour: Mon, 18-Dec-2017 11:30 CET
Légère pluie, Couvert
Légère pluie, Couvert
 Wind from WNW
Vent: WNW 7 km/h
Température: 3°C
Température au Vent: 1°C
Point de Rosée: 2°C
Humidité: 93%
Barometre: 1021 hPa
Nuage: Couvert
Visibilité: 7 km
2017/12/18 10:30 LFSO 181030Z AUTO 29004KT 7000 -RA BKN007 OVC011 03/02 Q1021 BECMG 35010KT BKN015
 
LFRS - Nantes,(44)Loire-Atlantique
Mise à jour: Mon, 18-Dec-2017 11:30 CET
Nuageux
Nuageux
 Wind from N
Vent: N 13 km/h
Température: 13°C
Point de Rosée: 12°C
Humidité: 94%
Barometre: 1027 hPa
Nuage: Nuageux
Visibilité: 10 km
2017/12/18 10:30 LFRS 181030Z AUTO 35007KT 310V020 9999 FEW007 SCT011 BKN017 13/12 Q1027 NOSIG
LFQG - Nevers,Fourchamb,(58)Nièvre
Mise à jour: Mon, 18-Dec-2017 11:30 CET
Nuageux
Nuageux
 Wind from N
Vent: N 20 km/h
Température: 9°C
Température au Vent: 6°C
Point de Rosée: 6°C
Humidité: 82%
Barometre: 1023 hPa
Nuage: Nuageux
Visibilité: 10 km
2017/12/18 10:30 LFQG 181030Z AUTO 35011KT 9999 FEW023 BKN037 BKN049 09/06 Q1023
LFMN - Nice,(06)Alpes-Maritimes
Mise à jour: Mon, 18-Dec-2017 11:30 CET
Nuageux
Nuageux
 Wind from NNW
Vent: NNW 20 km/h
Température: 6°C
Température au Vent: 2°C
Point de Rosée: -8°C
Humidité: 36%
Barometre: 1021 hPa
Nuage: Nuageux
Visibilité: 10 km
2017/12/18 10:30 LFMN 181030Z 33011KT 300V360 9999 FEW020 BKN110 06/M08 Q1021 NOSIG
 
LFTW - Nimes, Garons,(30) Gard
Mise à jour: Mon, 18-Dec-2017 11:30 CET
Nuageux
Nuageux
 Wind from calm
Vent: Calm
Température: 3°C
Point de Rosée: 2°C
Humidité: 93%
Barometre: 1024 hPa
Nuage: Nuageux
Visibilité: 10 km
2017/12/18 10:30 LFTW 181030Z AUTO 00000KT 9999 FEW046 BKN088 BKN110 03/02 Q1024 NOSIG
LFMO - Orange,(84)Vaucluse
Mise à jour: Mon, 18-Dec-2017 11:30 CET
Orageux
Orageux
 Wind from varies
Vent: varies 2 km/h
Température: 2°C
Point de Rosée: 2°C
Humidité: 100%
Barometre: 1024 hPa
Nuage: Orageux
Visibilité: 7 km
2017/12/18 10:30 LFMO 181030Z AUTO VRB01KT 7000 FEW003/// SCT070/// BKN100/// ///TCU 02/02 Q1024 TEMPO 4000 SCT005 BKN030
LFOJ - Orleans,(45)Loiret
Mise à jour: Mon, 18-Dec-2017 11:30 CET
Nuageux
Nuageux
 Wind from NNE
Vent: NNE 26 km/h
Température: 7°C
Température au Vent: 3°C
Point de Rosée: 5°C
Humidité: 87%
Barometre: 1025 hPa
Nuage: Nuageux
Visibilité: 10 km
2017/12/18 10:30 LFOJ 181030Z AUTO 02014KT 9999 BKN019 BKN024 07/05 Q1025 NOSIG
 
LFPB - Paris ,Le Bourget,(93)Seine-Saint-Denis
Mise à jour: Mon, 18-Dec-2017 11:30 CET
Quelques nuages
Quelques nuages
 Wind from N
Vent: N 13 km/h
Température: 7°C
Température au Vent: 5°C
Point de Rosée: 5°C
Humidité: 87%
Barometre: 1026 hPa
Nuage: Quelques nuages
Visibilité: 10 km
2017/12/18 10:30 LFPB 181030Z AUTO 35007KT 9999 FEW018 07/05 Q1026 NOSIG
LFPG - Paris, Charles De Gaulle,(95)Val-d Oise
Mise à jour: Mon, 18-Dec-2017 11:30 CET
Partiellement nuageux
Partiellement nuageux
 Wind from N
Vent: N 22 km/h
Température: 7°C
Température au Vent: 4°C
Point de Rosée: 5°C
Humidité: 87%
Barometre: 1025 hPa
Nuage: Partiellement nuageux
Visibilité: 10 km
2017/12/18 10:30 LFPG 181030Z 35012KT 9999 FEW015 SCT260 07/05 Q1025 NOSIG
LFPO - Paris-Orly,(94)Val-de-Marne
Mise à jour: Mon, 18-Dec-2017 11:30 CET
Partiellement nuageux
Partiellement nuageux
 Wind from N
Vent: N 22 km/h
Température: 8°C
Température au Vent: 4°C
Point de Rosée: 3°C
Humidité: 71%
Barometre: 1025 hPa
Nuage: Partiellement nuageux
Visibilité: 10 km
2017/12/18 10:30 LFPO 181030Z 01012KT 340V040 9999 FEW017 SCT260 08/03 Q1025 NOSIG
 
LFBP - Pau,(64)Pyrénées-Atlantiques
Mise à jour: Mon, 18-Dec-2017 11:30 CET
Légère pluie, Couvert
Légère pluie, Couvert
 Wind from W
Vent: W 17 km/h
Température: 9°C
Température au Vent: 7°C
Point de Rosée: 7°C
Humidité: 87%
Barometre: 1030 hPa
Nuage: Couvert
Visibilité: 10 km
2017/12/18 10:30 LFBP 181030Z AUTO 26009KT 9999 -RA FEW022 SCT036 OVC042 09/07 Q1030 TEMPO 2000 DZRA BKN003
LFMP - Perpignan,(66)Pyrénées-Orientales
Mise à jour: Mon, 18-Dec-2017 11:30 CET
Couvert
Couvert
 Wind from WNW
Vent: WNW 20 km/h, Gust: 43 km/h
Température: 12°C
Point de Rosée: 1°C
Humidité: 47%
Barometre: 1026 hPa
Nuage: Couvert
Visibilité: 10 km
2017/12/18 10:30 LFMP 181030Z AUTO 30011G23KT 270V340 9999 SCT074 OVC120 12/01 Q1026 BECMG 30015KT
LFBI - Poitiers,(86)Vienne
Mise à jour: Mon, 18-Dec-2017 11:30 CET
Couvert
Couvert
 Wind from NW
Vent: NW 19 km/h
Température: 11°C
Point de Rosée: 11°C
Humidité: 100%
Barometre: 1025 hPa
Nuage: Couvert
Visibilité: 10 km
2017/12/18 10:30 LFBI 181030Z AUTO 32010KT 9999 BKN005 OVC010 11/11 Q1025 TEMPO 2000 RADZ BECMG 03010KT NSC
 
LFBP - Pont-Long-Uzein,(64)Pyrénées-Atlantiques
Mise à jour: Mon, 18-Dec-2017 11:30 CET
Légère pluie, Couvert
Légère pluie, Couvert
 Wind from W
Vent: W 17 km/h
Température: 9°C
Température au Vent: 7°C
Point de Rosée: 7°C
Humidité: 87%
Barometre: 1030 hPa
Nuage: Couvert
Visibilité: 10 km
2017/12/18 10:30 LFBP 181030Z AUTO 26009KT 9999 -RA FEW022 SCT036 OVC042 09/07 Q1030 TEMPO 2000 DZRA BKN003
TFFR - Point à Pitre,(971)Guadeloupe
Mise à jour: Mon, 18-Dec-2017 11:30 CET
Légère pluie, Orageux
Légère pluie, Orageux
 Wind from ENE
Vent: ENE 7 km/h
Température: 24°C
Point de Rosée: 22°C
Humidité: 89%
Barometre: 1015 hPa
Nuage: Orageux
Visibilité: 8 km
2017/12/18 10:30 TFFR 181030Z AUTO 07004KT 030V120 8000 -RA FEW022/// BKN032/// BKN043/// ///TCU 24/22 Q1015 TEMPO 4000 SHRA
LFRQ - Quimper,(29)Finistère
Mise à jour: Mon, 18-Dec-2017 11:30 CET
Quelques nuages
Quelques nuages
 Wind from NNW
Vent: NNW 11 km/h
Température: 12°C
Point de Rosée: 10°C
Humidité: 88%
Barometre: 1029 hPa
Nuage: Quelques nuages
Visibilité: 10 km
2017/12/18 10:30 LFRQ 181030Z AUTO 34006KT 9999 FEW014 12/10 Q1029 TEMPO BKN010
 
LFQA - Reims,Prunay,(51)Marne
Mise à jour: Mon, 18-Dec-2017 11:30 CET
Couvert
Couvert
 Wind from NNW
Vent: NNW 22 km/h
Température: 6°C
Température au Vent: 2°C
Point de Rosée: 4°C
Humidité: 87%
Barometre: 1024 hPa
Nuage: Couvert
Visibilité: 10 km
2017/12/18 10:30 LFQA 181030Z AUTO 33012KT 320V020 9999 FEW012 BKN023 OVC030 06/04 Q1024
LFRN - Rennes,(35)Ille-et-Vilaine
Mise à jour: Mon, 18-Dec-2017 11:30 CET
Quelques nuages
Quelques nuages
 Wind from N
Vent: N 15 km/h
Température: 11°C
Point de Rosée: 8°C
Humidité: 82%
Barometre: 1028 hPa
Nuage: Quelques nuages
Visibilité: 10 km
2017/12/18 10:30 LFRN 181030Z AUTO 36008KT 9999 FEW013 11/08 Q1028 NOSIG
LFCR - Rodez,(12)Aveyron
Mise à jour: Mon, 18-Dec-2017 11:30 CET
Pluie, Orageux
Pluie, Orageux
 Wind from WNW
Vent: WNW 22 km/h
Température: 5°C
Température au Vent: 1°C
Point de Rosée: 5°C
Humidité: 100%
Barometre: 1025 hPa
Nuage: Orageux
Visibilité: 6 km
2017/12/18 10:30 LFCR 181030Z AUTO 29012KT 6000 RA BKN007/// OVC011/// ///TCU 05/05 Q1025 TEMPO 28015G25KT 2000 RA BKN002
 
LFYR - Romorantin,(41)Loir-et-Cher
Mise à jour: Mon, 18-Dec-2017 11:30 CET
Partiellement nuageux
Partiellement nuageux
 Wind from N
Vent: N 9 km/h
Température: 9°C
Température au Vent: 7°C
Point de Rosée: 5°C
Humidité: 76%
Barometre: 1025 hPa
Nuage: Partiellement nuageux
Visibilité: 10 km
2017/12/18 10:30 LFYR 181030Z AUTO 36005KT 310V040 9999 FEW016 SCT024 09/05 Q1025 TEMPO 02015G25KT
LFOP - Rouen,(76)Seine-Maritime
Mise à jour: Mon, 18-Dec-2017 11:30 CET
Claire
Claire
 Wind from N
Vent: N 19 km/h
Température: 7°C
Température au Vent: 4°C
Point de Rosée: 4°C
Humidité: 81%
Visibilité: Supérieure à  10 km
2017/12/18 10:30 LFOP 181030Z AUTO 01010KT CAVOK 07/04 Q//// NOSIG
LFRT - Saint-Brieuc,(22)Côtes-d Armor
Mise à jour: Mon, 18-Dec-2017 11:30 CET
Couvert
Couvert
 Wind from NE
Vent: NE 13 km/h
Température: 9°C
Température au Vent: 7°C
Point de Rosée: 7°C
Humidité: 87%
Barometre: 1029 hPa
Nuage: Couvert
Visibilité: 10 km
2017/12/18 10:30 LFRT 181030Z AUTO 05007KT 9999 BKN019 OVC030 09/07 Q1029
 
FMEE - Saint-Denis,(974)Réunion
Mise à jour: Mon, 18-Dec-2017 11:19 CET
Nuageux
Nuageux
 Wind from E
Vent: E 31 km/h
Température: 30°C
Humidex: 33°C
Point de Rosée: 21°C
Humidité: 59%
Barometre: 1015 hPa
Nuage: Nuageux
Visibilité: 10 km
2017/12/18 10:19 FMEE 181019Z 08017KT 9999 FEW033 BKN300 30/21 Q1015 NOSIG
LFLN - Saint-Yan,(71)Saône-et-Loire
Mise à jour: Mon, 18-Dec-2017 11:30 CET
Nuageux
Nuageux
 Wind from NNW
Vent: NNW 9 km/h
Température: 7°C
Température au Vent: 6°C
Point de Rosée: 6°C
Humidité: 93%
Barometre: 1022 hPa
Nuage: Nuageux
Visibilité: 10 km
2017/12/18 10:30 LFLN 181030Z AUTO 33005KT 9999 FEW016 SCT029 BKN036 07/06 Q1022 NOSIG
LFMY - Salon-de-Provence,(13)Bouches-du-Rhône
Mise à jour: Mon, 18-Dec-2017 11:30 CET
Légère pluie, Orageux
Légère pluie, Orageux
 Wind from varies
Vent: varies 4 km/h
Température: 3°C
Point de Rosée: 2°C
Humidité: 93%
Barometre: 1024 hPa
Nuage: Orageux
Visibilité: 10 km
2017/12/18 10:30 LFMY 181030Z AUTO VRB02KT 9999 -RA FEW035/// BKN052/// ///TCU 03/02 Q1024 BECMG SCT040 BKN055
 
LFKS - Solenzara,(2A)Corse-du-Sud
Mise à jour: Mon, 18-Dec-2017 11:30 CET
Claire
Claire
 Wind from varies
Vent: varies 6 km/h
Température: 11°C
Point de Rosée: 0°C
Humidité: 47%
Barometre: 1022 hPa
Visibilité: Supérieure à  10 km
2017/12/18 10:30 LFKS 181030Z AUTO VRB03KT CAVOK 11/00 Q1022
LFSI - St-Dizier,(52)Haute-Marne
Mise à jour: Mon, 18-Dec-2017 09:30 CET
Pas Actualisé
Nuageux
Nuageux
 Wind from N
Vent: N 6 km/h
Température: 5°C
Point de Rosée: 5°C
Humidité: 100%
Barometre: 1021 hPa
Nuage: Nuageux
Visibilité: 10 km
2017/12/18 08:30 LFSI 180830Z AUTO 36003KT 9999 SCT007 SCT027 BKN037 05/05 Q1021
LFMH - St-Etienne Boutheon,(42) Loire
Mise à jour: Mon, 18-Dec-2017 11:30 CET
Pluie, Couvert
Pluie, Couvert
 Wind from SE
Vent: SE 15 km/h
Température: 4°C
Température au Vent: 1°C
Point de Rosée: 3°C
Humidité: 93%
Barometre: 1021 hPa
Nuage: Couvert
Visibilité: 9 km
2017/12/18 10:30 LFMH 181030Z AUTO 14008KT 9000 RA OVC033 04/03 Q1021 BECMG 36010KT
 
LFVP - St-Pierre et Miquelon,(975)Outre-mer
Mise à jour: Mon, 18-Dec-2017 12:00 CET
Nuageux
Nuageux
 Wind from NW
Vent: NW 35 km/h, Gust: 56 km/h
Température: -3°C
Température au Vent: -11°C
Point de Rosée: -7°C
Humidité: 74%
Barometre: 1011 hPa
Nuage: Nuageux
Visibilité: 10 km
2017/12/18 11:00 LFVP 181100Z 31019G30KT 9999 BKN016 BKN040 M03/M07 Q1011 NOSIG
LFRZ - St-Nazaire,(44)Loire-Atlantique
Mise à jour: Mon, 18-Dec-2017 11:30 CET
Nuageux
Nuageux
 Wind from N
Vent: N 17 km/h
Température: 12°C
Point de Rosée: 10°C
Humidité: 88%
Barometre: 1027 hPa
Nuage: Nuageux
Visibilité: 10 km
2017/12/18 10:30 LFRZ 181030Z AUTO 01009KT 340V040 9999 FEW009 SCT015 BKN026 12/10 Q1027 NOSIG
LFST - Strasbourg,(67)Bas-Rhin
Mise à jour: Mon, 18-Dec-2017 11:30 CET
Couvert
Couvert
 Wind from S
Vent: S 6 km/h
Température: 1°C
Point de Rosée: 0°C
Humidité: 93%
Barometre: 1021 hPa
Nuage: Couvert
Visibilité: 10 km
2017/12/18 10:30 LFST 181030Z AUTO 17003KT 140V210 9999 FEW008 BKN016 OVC021 01/00 Q1021 NOSIG
 
LFBT - Tarbes, Ossun,(65)Hautes-Pyrénées
Mise à jour: Mon, 18-Dec-2017 11:30 CET
Couvert
Couvert
 Wind from W
Vent: W 22 km/h
Température: 9°C
Température au Vent: 6°C
Point de Rosée: 5°C
Humidité: 76%
Barometre: 1029 hPa
Nuage: Couvert
Visibilité: 10 km
2017/12/18 10:30 LFBT 181030Z AUTO 26012KT 230V290 9999 BKN074 OVC090 09/05 Q1029 TEMPO 28020G35KT 4000 RA BKN008
LFBO - Toulouse,Blagnac,(31)Haute-Garonne
Mise à jour: Mon, 18-Dec-2017 11:30 CET
Claire
Claire
 Wind from W
Vent: W 24 km/h
Température: 9°C
Température au Vent: 6°C
Point de Rosée: 5°C
Humidité: 76%
Barometre: 1028 hPa
Visibilité: Supérieure à  10 km
2017/12/18 10:30 LFBO 181030Z AUTO 28013KT CAVOK 09/05 Q1028 TEMPO 29018G30KT RA BKN010 BKN020TCU
LFOT - Tours,(37)Indre-et-Loire
Mise à jour: Mon, 18-Dec-2017 11:30 CET
Nuageux
Nuageux
 Wind from NNE
Vent: NNE 19 km/h
Température: 9°C
Température au Vent: 6°C
Point de Rosée: 4°C
Humidité: 71%
Barometre: 1026 hPa
Nuage: Nuageux
Visibilité: 10 km
2017/12/18 10:30 LFOT 181030Z AUTO 02010KT 360V070 9999 SCT016 BKN022 BKN037 09/04 Q1026 NOSIG
 
LFPN - Toussus Le Noble,(78)Yvelines
Mise à jour: Mon, 18-Dec-2017 11:30 CET
Nuageux
Nuageux
 Wind from N
Vent: N 24 km/h
Température: 7°C
Température au Vent: 3°C
Point de Rosée: 4°C
Humidité: 81%
Barometre: 1025 hPa
Nuage: Nuageux
Visibilité: 10 km
2017/12/18 10:30 LFPN 181030Z AUTO 36013KT 340V040 9999 BKN013 07/04 Q1025 TEMPO SCT030
LFQB - Troyes,Barberey,(10)Aube
Mise à jour: Mon, 18-Dec-2017 11:30 CET
Nuageux
Nuageux
 Wind from NNW
Vent: NNW 20 km/h
Température: 7°C
Température au Vent: 4°C
Point de Rosée: 4°C
Humidité: 81%
Barometre: 1024 hPa
Nuage: Nuageux
Visibilité: 10 km
2017/12/18 10:30 LFQB 181030Z AUTO 33011KT 9999 FEW041 BKN049 07/04 Q1024
LFLU - VALENCE Chabeuil,(26)Drôme
Mise à jour: Mon, 18-Dec-2017 11:30 CET
Brouillard, Couvert
Brouillard, Couvert
 Wind from SSE
Vent: SSE 7 km/h
Température: 1°C
Température au Vent: -2°C
Point de Rosée: 0°C
Humidité: 93%
Barometre: 1023 hPa
Nuage: Couvert
Visibilité: 5 km
2017/12/18 10:30 LFLU 181030Z AUTO 16004KT 4600 BR BKN003 BKN007 OVC029 01/00 Q1023
 
LFRV - Vannes,Meucon,(56)Morbihan
Mise à jour: Mon, 18-Dec-2017 11:30 CET
Quelques nuages
Quelques nuages
 Wind from N
Vent: N 17 km/h
Température: 12°C
Point de Rosée: 10°C
Humidité: 88%
Barometre: 1028 hPa
Nuage: Quelques nuages
Visibilité: 10 km
2017/12/18 10:30 LFRV 181030Z AUTO 36009KT 9999 FEW011 12/10 Q1028
LFPV - Villacoublay,(78)Yvelines
Mise à jour: Mon, 18-Dec-2017 11:30 CET
Partiellement nuageux
Partiellement nuageux
 Wind from N
Vent: N 20 km/h
Température: 6°C
Température au Vent: 2°C
Point de Rosée: 4°C
Humidité: 87%
Barometre: 1025 hPa
Nuage: Partiellement nuageux
Visibilité: 10 km
2017/12/18 10:30 LFPV 181030Z AUTO 36011KT 330V050 9999 SCT013 06/04 Q1025 NOSIG

Metar display script from Saratoga-Weather.org